createdAt,value
2019-03-03T00:01:12.892Z,5.80
2019-03-03T00:03:16.884Z,5.60
2019-03-03T00:05:21.063Z,6.13
2019-03-03T00:07:25.163Z,6.20
2019-03-03T00:09:29.016Z,5.90
2019-03-03T00:11:32.904Z,5.47
2019-03-03T00:13:36.680Z,5.43
2019-03-03T00:15:41.151Z,5.77
2019-03-03T00:17:45.714Z,5.80
2019-03-03T00:19:49.543Z,6.00
2019-03-03T00:21:53.740Z,5.73
2019-03-03T00:23:57.662Z,6.20
2019-03-03T00:26:01.480Z,6.23
2019-03-03T00:28:05.329Z,6.37
2019-03-03T00:30:09.761Z,6.57
2019-03-03T00:32:13.749Z,6.30
2019-03-03T00:34:17.592Z,6.83
2019-03-03T00:36:21.689Z,6.67
2019-03-03T00:38:33.691Z,6.33
2019-03-03T00:41:11.999Z,6.07
2019-03-03T00:43:22.543Z,6.60
2019-03-03T00:45:48.322Z,6.40
2019-03-03T00:48:38.618Z,5.97
2019-03-03T00:50:53.062Z,5.80
2019-03-03T00:53:12.459Z,6.13
2019-03-03T00:55:32.344Z,6.20
2019-03-03T00:57:47.240Z,5.17
2019-03-03T01:00:13.284Z,5.40
2019-03-03T01:02:39.943Z,6.37
2019-03-03T01:04:55.928Z,5.20
2019-03-03T01:07:16.258Z,5.63
2019-03-03T01:09:53.490Z,5.50
2019-03-03T01:12:07.100Z,4.20
2019-03-03T01:14:31.276Z,4.77
2019-03-03T01:16:53.160Z,5.17
2019-03-03T01:19:28.817Z,4.60
2019-03-03T01:21:57.588Z,4.33
2019-03-03T01:24:19.247Z,4.10
2019-03-03T01:26:24.085Z,4.40
2019-03-03T01:28:27.923Z,4.10
2019-03-03T01:30:31.883Z,5.43
2019-03-03T01:32:35.944Z,4.00
2019-03-03T01:34:39.819Z,4.03
2019-03-03T01:36:43.669Z,4.07
2019-03-03T01:38:47.471Z,4.30
2019-03-03T01:40:51.609Z,3.83
2019-03-03T01:42:55.803Z,3.67
2019-03-03T01:44:59.859Z,4.37
2019-03-03T01:47:03.771Z,3.53
2019-03-03T01:49:07.593Z,3.80
2019-03-03T01:51:11.586Z,4.10
2019-03-03T01:53:15.435Z,3.80
2019-03-03T01:55:19.391Z,4.30
2019-03-03T01:57:23.483Z,4.27
2019-03-03T01:59:27.397Z,3.90
2019-03-03T02:01:31.249Z,3.43
2019-03-03T02:03:36.795Z,3.93
2019-03-03T02:05:40.866Z,4.50
2019-03-03T02:07:44.710Z,3.73
2019-03-03T02:09:48.729Z,3.73
2019-03-03T02:11:53.133Z,4.87
2019-03-03T02:13:57.147Z,3.73
2019-03-03T02:16:01.739Z,3.87
2019-03-03T02:18:06.105Z,5.13
2019-03-03T02:20:11.523Z,4.60
2019-03-03T02:22:15.364Z,4.13
2019-03-03T02:24:19.412Z,4.30
2019-03-03T02:26:23.541Z,4.00
2019-03-03T02:28:27.517Z,4.03
2019-03-03T02:30:31.352Z,3.60
2019-03-03T02:32:35.233Z,3.53
2019-03-03T02:34:39.048Z,3.30
2019-03-03T02:36:42.926Z,3.73
2019-03-03T02:38:46.820Z,3.60
2019-03-03T02:40:50.658Z,4.03
2019-03-03T02:42:55.093Z,3.97
2019-03-03T02:44:59.008Z,3.43
2019-03-03T02:47:02.912Z,3.63
2019-03-03T02:49:06.802Z,3.27
2019-03-03T02:51:10.688Z,3.50
2019-03-03T02:53:14.476Z,3.60
2019-03-03T02:55:18.378Z,3.77
2019-03-03T02:57:22.305Z,3.20
2019-03-03T02:59:26.393Z,3.50
2019-03-03T03:01:35.664Z,3.70
2019-03-03T03:03:40.197Z,3.30
2019-03-03T03:05:52.960Z,3.93
2019-03-03T03:08:03.817Z,3.73
2019-03-03T03:10:13.770Z,4.30
2019-03-03T03:12:33.252Z,4.23
2019-03-03T03:14:56.248Z,4.50
2019-03-03T03:17:16.406Z,4.20
2019-03-03T03:19:37.956Z,4.10
2019-03-03T03:22:07.123Z,4.40
2019-03-03T03:24:17.150Z,3.90
2019-03-03T03:26:32.337Z,4.00
2019-03-03T03:28:52.220Z,3.90
2019-03-03T03:31:06.688Z,3.63
2019-03-03T03:33:32.843Z,3.60
2019-03-03T03:35:54.792Z,4.47
2019-03-03T03:38:04.913Z,4.43
2019-03-03T03:40:27.554Z,3.87
2019-03-03T03:42:47.949Z,3.60
2019-03-03T03:44:59.713Z,3.30
2019-03-03T03:47:16.210Z,3.57
2019-03-03T03:49:48.228Z,4.20
2019-03-03T03:52:09.901Z,4.03
2019-03-03T03:54:23.691Z,3.40
2019-03-03T03:56:47.085Z,3.70
2019-03-03T03:59:08.899Z,3.30
2019-03-03T04:01:41.268Z,3.97
2019-03-03T04:03:55.624Z,3.53
2019-03-03T04:06:17.043Z,3.77
2019-03-03T04:08:28.769Z,3.50
2019-03-03T04:10:39.494Z,3.30
2019-03-03T04:13:14.545Z,3.70
2019-03-03T04:15:49.727Z,3.37
2019-03-03T04:18:24.709Z,3.00
2019-03-03T04:20:45.202Z,3.10
2019-03-03T04:23:02.636Z,3.47
2019-03-03T04:25:28.460Z,3.13
2019-03-03T04:27:41.567Z,3.83
2019-03-03T04:29:52.521Z,3.67
2019-03-03T04:32:01.050Z,3.73
2019-03-03T04:34:22.276Z,3.80
2019-03-03T04:36:38.004Z,3.67
2019-03-03T04:39:13.331Z,3.10
2019-03-03T04:41:36.259Z,3.53
2019-03-03T04:43:47.034Z,3.37
2019-03-03T04:46:12.907Z,3.50
2019-03-03T04:48:28.135Z,3.27
2019-03-03T04:51:00.215Z,3.03
2019-03-03T04:53:16.671Z,3.73
2019-03-03T04:55:42.659Z,2.60
2019-03-03T04:58:02.421Z,3.30
2019-03-03T05:00:32.019Z,2.87
2019-03-03T05:02:57.735Z,3.50
2019-03-03T05:05:08.712Z,3.70
2019-03-03T05:07:25.499Z,3.77
2019-03-03T05:09:39.930Z,3.67
2019-03-03T05:12:27.759Z,3.40
2019-03-03T05:14:36.140Z,4.13
2019-03-03T05:16:52.023Z,3.87
2019-03-03T05:19:05.597Z,3.67
2019-03-03T05:21:09.447Z,3.13
2019-03-03T05:23:13.603Z,3.03
2019-03-03T05:25:17.397Z,3.30
2019-03-03T05:27:21.223Z,3.90
2019-03-03T05:29:25.521Z,3.67
2019-03-03T05:31:29.479Z,3.33
2019-03-03T05:33:33.388Z,4.03
2019-03-03T05:35:37.193Z,2.90
2019-03-03T05:37:40.992Z,3.43
2019-03-03T05:39:44.803Z,3.67
2019-03-03T05:41:48.596Z,3.50
2019-03-03T05:43:52.430Z,4.23
2019-03-03T05:45:57.023Z,3.67
2019-03-03T05:48:00.883Z,3.37
2019-03-03T05:50:05.121Z,3.52
2019-03-03T05:52:08.864Z,3.80
2019-03-03T05:54:12.644Z,3.20
2019-03-03T05:56:16.488Z,4.03
2019-03-03T05:58:20.308Z,3.50
2019-03-03T06:00:24.442Z,3.13
2019-03-03T06:02:28.499Z,3.30
2019-03-03T06:04:32.364Z,3.87
2019-03-03T06:06:36.739Z,3.47
2019-03-03T06:08:40.607Z,3.90
2019-03-03T06:10:44.396Z,3.23
2019-03-03T06:12:48.239Z,3.20
2019-03-03T06:14:52.041Z,2.87
2019-03-03T06:16:56.310Z,3.03
2019-03-03T06:19:00.096Z,2.90
2019-03-03T06:21:03.980Z,3.30
2019-03-03T06:23:07.751Z,3.50
2019-03-03T06:25:11.753Z,3.60
2019-03-03T06:27:15.560Z,3.27
2019-03-03T06:29:19.440Z,3.53
2019-03-03T06:31:23.300Z,3.53
2019-03-03T06:33:27.853Z,3.57
2019-03-03T06:35:31.645Z,3.57
2019-03-03T06:37:35.479Z,3.30
2019-03-03T06:39:39.296Z,3.90
2019-03-03T06:41:43.122Z,3.30
2019-03-03T06:43:46.989Z,3.63
2019-03-03T06:45:50.876Z,3.33
2019-03-03T06:47:55.076Z,4.17
2019-03-03T06:49:59.028Z,3.00
2019-03-03T06:52:02.905Z,3.63
2019-03-03T06:54:06.687Z,3.67
2019-03-03T06:56:10.479Z,4.17
2019-03-03T06:58:14.285Z,3.50
2019-03-03T07:00:18.262Z,3.50
2019-03-03T07:02:22.046Z,3.70
2019-03-03T07:04:26.515Z,3.37
2019-03-03T07:06:30.388Z,2.50
2019-03-03T07:08:35.399Z,3.47
2019-03-03T07:10:39.523Z,4.03
2019-03-03T07:12:43.419Z,2.77
2019-03-03T07:14:47.215Z,3.37
2019-03-03T07:16:51.092Z,3.60
2019-03-03T07:19:14.086Z,3.80
2019-03-03T07:21:17.954Z,3.40
2019-03-03T07:23:21.765Z,3.97
2019-03-03T07:25:26.175Z,3.43
2019-03-03T07:27:30.132Z,4.53
2019-03-03T07:29:34.156Z,3.53
2019-03-03T07:31:37.939Z,3.43
2019-03-03T07:33:45.176Z,3.57
2019-03-03T07:35:48.971Z,3.90
2019-03-03T07:37:52.920Z,4.10
2019-03-03T07:39:57.387Z,3.70
2019-03-03T07:42:01.393Z,3.80
2019-03-03T07:44:05.345Z,3.97
2019-03-03T07:46:09.183Z,3.73
2019-03-03T07:48:13.668Z,4.30
2019-03-03T07:50:17.514Z,3.93
2019-03-03T07:52:33.356Z,4.60
2019-03-03T07:54:37.115Z,4.33
2019-03-03T07:56:40.952Z,3.30
2019-03-03T07:58:44.823Z,3.53
2019-03-03T08:00:48.731Z,3.47
2019-03-03T08:02:52.558Z,3.70
2019-03-03T08:04:57.419Z,3.70
2019-03-03T08:07:03.015Z,3.50
2019-03-03T08:09:08.017Z,4.10
2019-03-03T08:11:11.811Z,3.77
2019-03-03T08:13:15.695Z,3.47
2019-03-03T08:15:19.567Z,4.00
2019-03-03T08:17:23.409Z,4.13
2019-03-03T08:19:28.264Z,3.63
2019-03-03T08:21:32.059Z,3.57
2019-03-03T08:23:35.873Z,4.03
2019-03-03T08:25:39.693Z,3.83
2019-03-03T08:27:43.568Z,3.97
2019-03-03T08:29:47.467Z,4.13
2019-03-03T08:31:51.247Z,4.37
2019-03-03T08:33:55.346Z,5.00
2019-03-03T08:35:59.742Z,4.40
2019-03-03T08:38:03.721Z,4.20
2019-03-03T08:40:08.268Z,3.63
2019-03-03T08:42:30.120Z,4.20
2019-03-03T08:44:45.151Z,3.70
2019-03-03T08:47:09.871Z,3.93
2019-03-03T08:49:24.635Z,3.90
2019-03-03T08:51:47.012Z,4.03
2019-03-03T08:54:09.984Z,4.03
2019-03-03T08:56:32.862Z,3.77
2019-03-03T08:58:47.658Z,3.60
2019-03-03T09:01:00.148Z,4.43
2019-03-03T09:03:14.291Z,3.47
2019-03-03T09:05:28.280Z,3.50
2019-03-03T09:07:51.895Z,3.90
2019-03-03T09:10:02.783Z,3.93
2019-03-03T09:12:34.795Z,4.30
2019-03-03T09:14:58.018Z,3.63
2019-03-03T09:17:12.339Z,3.47
2019-03-03T09:19:40.127Z,4.50
2019-03-03T09:22:04.691Z,4.10
2019-03-03T09:24:30.571Z,3.77
2019-03-03T09:27:06.136Z,4.20
2019-03-03T09:29:26.369Z,3.83
2019-03-03T09:31:53.123Z,3.30
2019-03-03T09:34:22.571Z,3.40
2019-03-03T09:36:51.655Z,3.53
2019-03-03T09:39:05.748Z,3.83
2019-03-03T09:41:28.629Z,4.33
2019-03-03T09:43:49.395Z,3.70
2019-03-03T09:46:18.263Z,3.70
2019-03-03T09:48:47.085Z,4.07
2019-03-03T09:51:16.054Z,3.47
2019-03-03T09:53:25.211Z,4.07
2019-03-03T09:55:49.128Z,3.70
2019-03-03T09:58:12.948Z,4.07
2019-03-03T10:00:23.252Z,3.83
2019-03-03T10:02:45.143Z,3.03
2019-03-03T10:04:55.510Z,3.27
2019-03-03T10:07:15.580Z,3.07
2019-03-03T10:09:30.855Z,3.30
2019-03-03T10:11:44.380Z,3.87
2019-03-03T10:14:07.244Z,3.03
2019-03-03T10:16:29.411Z,3.37
2019-03-03T10:18:51.339Z,2.93
2019-03-03T10:21:17.420Z,3.20
2019-03-03T10:23:39.191Z,3.63
2019-03-03T10:25:57.805Z,3.53
2019-03-03T10:28:20.731Z,2.93
2019-03-03T10:30:45.815Z,3.53
2019-03-03T10:33:15.081Z,3.40
2019-03-03T10:35:29.684Z,2.97
2019-03-03T10:38:01.894Z,3.70
2019-03-03T10:40:18.896Z,3.47
2019-03-03T10:42:30.976Z,3.13
2019-03-03T10:44:52.795Z,4.37
2019-03-03T10:47:15.712Z,2.90
2019-03-03T10:49:50.724Z,3.27
2019-03-03T10:52:04.321Z,3.77
2019-03-03T10:54:14.175Z,2.67
2019-03-03T10:56:49.519Z,2.70
2019-03-03T10:59:05.228Z,2.93
2019-03-03T11:01:31.447Z,2.83
2019-03-03T11:03:50.327Z,2.40
2019-03-03T11:06:05.163Z,3.50
2019-03-03T11:08:28.316Z,3.10
2019-03-03T11:10:38.671Z,2.70
2019-03-03T11:12:56.229Z,2.90
2019-03-03T11:15:33.031Z,2.60
2019-03-03T11:17:54.595Z,2.80
2019-03-03T11:20:06.900Z,2.70
2019-03-03T11:22:28.865Z,2.27
2019-03-03T11:24:58.523Z,2.73
2019-03-03T11:27:21.727Z,3.10
2019-03-03T11:29:39.931Z,3.03
2019-03-03T11:32:01.909Z,3.00
2019-03-03T11:34:24.803Z,2.70
2019-03-03T11:36:34.764Z,3.63
2019-03-03T11:38:47.683Z,2.80
2019-03-03T11:40:59.134Z,2.37
2019-03-03T11:43:23.548Z,2.60
2019-03-03T11:45:33.722Z,2.53
2019-03-03T11:48:03.894Z,2.27
2019-03-03T11:50:19.724Z,3.10
2019-03-03T11:52:38.971Z,2.67
2019-03-03T11:55:01.965Z,2.57
2019-03-03T11:57:30.919Z,2.87
2019-03-03T11:59:48.139Z,2.77
2019-03-03T12:02:13.815Z,2.90
2019-03-03T12:04:36.691Z,2.30
2019-03-03T12:06:58.948Z,2.50
2019-03-03T12:09:23.252Z,2.60
2019-03-03T12:11:39.248Z,2.57
2019-03-03T12:14:02.655Z,2.50
2019-03-03T12:16:26.300Z,3.53
2019-03-03T12:18:49.727Z,3.20
2019-03-03T12:21:13.007Z,2.93
2019-03-03T12:23:31.954Z,2.60
2019-03-03T12:25:53.551Z,2.90
2019-03-03T12:28:16.483Z,2.10
2019-03-03T12:30:32.091Z,2.67
2019-03-03T12:33:13.331Z,2.30
2019-03-03T12:35:39.117Z,2.50
2019-03-03T12:38:01.035Z,2.67
2019-03-03T12:40:36.703Z,2.87
2019-03-03T12:42:59.724Z,2.90
2019-03-03T12:45:38.059Z,2.77
2019-03-03T12:47:52.795Z,2.93
2019-03-03T12:50:15.748Z,2.50
2019-03-03T12:52:30.167Z,2.40
2019-03-03T12:54:51.963Z,2.83
2019-03-03T12:57:14.076Z,2.07
2019-03-03T12:59:29.853Z,2.80
2019-03-03T13:02:07.988Z,2.50
2019-03-03T13:04:29.506Z,2.07
2019-03-03T13:06:55.243Z,2.70
2019-03-03T13:09:11.706Z,2.60
2019-03-03T13:11:24.244Z,2.40
2019-03-03T13:13:50.166Z,2.60
2019-03-03T13:16:03.532Z,2.43
2019-03-03T13:18:18.727Z,2.17
2019-03-03T13:20:50.070Z,2.67
2019-03-03T13:23:03.079Z,2.90
2019-03-03T13:25:21.911Z,3.50
2019-03-03T13:27:38.536Z,2.60
2019-03-03T13:30:10.819Z,2.73
2019-03-03T13:32:40.540Z,2.80
2019-03-03T13:35:02.219Z,2.93
2019-03-03T13:37:25.096Z,2.87
2019-03-03T13:39:53.916Z,2.73
2019-03-03T13:42:10.913Z,3.00
2019-03-03T13:44:14.705Z,2.70
2019-03-03T13:46:18.644Z,2.80
2019-03-03T13:48:22.499Z,3.40
2019-03-03T13:50:26.455Z,2.70
2019-03-03T13:52:31.612Z,2.57
2019-03-03T13:54:35.736Z,2.90
2019-03-03T13:56:39.679Z,2.80
2019-03-03T13:58:43.507Z,2.63
2019-03-03T14:00:47.591Z,2.53
2019-03-03T14:02:51.527Z,2.80
2019-03-03T14:04:55.409Z,2.40
2019-03-03T14:07:00.030Z,2.63
2019-03-03T14:09:05.047Z,2.50
2019-03-03T14:11:09.301Z,2.40
2019-03-03T14:13:13.252Z,2.40
2019-03-03T14:15:17.959Z,2.30
2019-03-03T14:17:22.448Z,1.70
2019-03-03T14:19:26.300Z,1.77
2019-03-03T14:21:31.112Z,2.27
2019-03-03T14:23:34.935Z,2.43
2019-03-03T14:25:38.751Z,2.27
2019-03-03T14:27:42.787Z,2.03
2019-03-03T14:29:46.588Z,2.20
2019-03-03T14:31:50.575Z,1.97
2019-03-03T14:34:04.533Z,1.70
2019-03-03T14:36:08.532Z,2.13
2019-03-03T14:38:12.275Z,1.70
2019-03-03T14:40:17.022Z,1.93
2019-03-03T14:42:20.824Z,1.93
2019-03-03T14:44:24.608Z,2.53
2019-03-03T14:46:28.881Z,2.77
2019-03-03T14:48:33.035Z,2.37
2019-03-03T14:50:37.099Z,2.07
2019-03-03T14:52:41.261Z,2.27
2019-03-03T14:54:45.155Z,2.60
2019-03-03T14:56:48.981Z,3.27
2019-03-03T14:58:52.799Z,2.97
2019-03-03T15:00:56.639Z,3.03
2019-03-03T15:03:02.875Z,2.77
2019-03-03T15:05:06.775Z,2.37
2019-03-03T15:07:10.618Z,2.30
2019-03-03T15:09:20.427Z,2.37
2019-03-03T15:11:24.333Z,3.10
2019-03-03T15:13:28.733Z,3.40
2019-03-03T15:15:33.862Z,2.80
2019-03-03T15:17:38.188Z,3.23
2019-03-03T15:19:42.172Z,3.47
2019-03-03T15:21:45.991Z,3.20
2019-03-03T15:23:49.847Z,2.63
2019-03-03T15:25:53.723Z,2.90
2019-03-03T15:27:57.766Z,2.60
2019-03-03T15:30:03.383Z,3.10
2019-03-03T15:32:07.343Z,2.93
2019-03-03T15:34:11.353Z,2.87
2019-03-03T15:36:15.280Z,3.00
2019-03-03T15:38:19.160Z,2.90
2019-03-03T15:40:23.148Z,2.83
2019-03-03T15:42:27.152Z,3.27
2019-03-03T15:44:37.349Z,3.43
2019-03-03T15:46:42.435Z,2.90
2019-03-03T15:48:47.465Z,2.97
2019-03-03T15:50:52.722Z,3.30
2019-03-03T15:52:56.632Z,3.10
2019-03-03T15:55:01.645Z,2.33
2019-03-03T15:57:06.171Z,3.30
2019-03-03T15:59:10.015Z,2.87
2019-03-03T16:01:15.867Z,3.17
2019-03-03T16:03:19.732Z,2.70
2019-03-03T16:05:23.659Z,2.77
2019-03-03T16:07:27.489Z,3.63
2019-03-03T16:09:32.000Z,3.37
2019-03-03T16:11:35.752Z,2.77
2019-03-03T16:13:39.550Z,3.23
2019-03-03T16:15:43.596Z,3.77
2019-03-03T16:17:48.055Z,3.43
2019-03-03T16:19:51.853Z,3.27
2019-03-03T16:21:55.776Z,2.83
2019-03-03T16:24:00.163Z,3.93
2019-03-03T16:26:04.467Z,3.27
2019-03-03T16:28:08.521Z,3.57
2019-03-03T16:30:14.547Z,3.07
2019-03-03T16:32:18.336Z,3.33
2019-03-03T16:34:22.444Z,2.77
2019-03-03T16:36:26.280Z,2.80
2019-03-03T16:38:30.964Z,2.50
2019-03-03T16:40:39.526Z,3.07
2019-03-03T16:42:40.984Z,2.60
2019-03-03T16:44:45.193Z,3.40
2019-03-03T16:46:49.080Z,3.47
2019-03-03T16:48:52.931Z,2.90
2019-03-03T16:50:56.773Z,3.10
2019-03-03T16:53:00.941Z,3.33
2019-03-03T16:55:05.381Z,3.22
2019-03-03T16:57:09.170Z,2.90
2019-03-03T16:59:12.972Z,2.60
2019-03-03T17:01:16.968Z,3.97
2019-03-03T17:03:20.828Z,2.60
2019-03-03T17:05:24.764Z,3.30
2019-03-03T17:07:28.593Z,3.27
2019-03-03T17:09:33.464Z,2.43
2019-03-03T17:11:37.259Z,2.80
2019-03-03T17:13:41.126Z,3.13
2019-03-03T17:15:44.920Z,3.03
2019-03-03T17:17:49.570Z,2.83
2019-03-03T17:19:53.431Z,3.20
2019-03-03T17:21:57.220Z,2.83
2019-03-03T17:24:01.587Z,3.33
2019-03-03T17:26:05.696Z,2.77
2019-03-03T17:28:09.557Z,3.30
2019-03-03T17:30:15.817Z,3.30
2019-03-03T17:32:19.735Z,3.30
2019-03-03T17:34:23.608Z,2.60
2019-03-03T17:36:27.433Z,2.70
2019-03-03T17:38:31.476Z,3.15
2019-03-03T17:40:35.483Z,2.80
2019-03-03T17:42:39.382Z,2.87
2019-03-03T17:44:43.224Z,2.80
2019-03-03T17:46:47.093Z,2.60
2019-03-03T17:48:50.996Z,2.80
2019-03-03T17:50:54.786Z,2.60
2019-03-03T17:52:58.560Z,3.00
2019-03-03T17:55:03.151Z,3.07
2019-03-03T17:57:07.236Z,2.73
2019-03-03T17:59:11.041Z,3.37
2019-03-03T18:01:14.897Z,2.37
2019-03-03T18:03:20.244Z,2.77
2019-03-03T18:05:24.230Z,2.97
2019-03-03T18:07:28.156Z,3.10
2019-03-03T18:09:32.341Z,2.90
2019-03-03T18:11:36.305Z,2.80
2019-03-03T18:13:40.261Z,2.80
2019-03-03T18:15:44.043Z,3.40
2019-03-03T18:17:50.213Z,3.30
2019-03-03T18:19:53.976Z,3.27
2019-03-03T18:21:57.929Z,3.17
2019-03-03T18:24:02.088Z,3.27
2019-03-03T18:26:05.879Z,3.00
2019-03-03T18:28:09.749Z,3.17
2019-03-03T18:30:16.141Z,3.63
2019-03-03T18:32:20.332Z,3.30
2019-03-03T18:34:24.296Z,3.10
2019-03-03T18:36:28.859Z,2.90
2019-03-03T18:38:33.500Z,3.50
2019-03-03T18:40:37.289Z,3.87
2019-03-03T18:42:41.168Z,3.37
2019-03-03T18:44:45.020Z,3.90
2019-03-03T18:46:48.912Z,2.80
2019-03-03T18:48:52.707Z,2.77
2019-03-03T18:50:56.592Z,3.30
2019-03-03T18:53:00.617Z,3.72
2019-03-03T18:55:06.857Z,2.83
2019-03-03T18:57:10.751Z,3.00
2019-03-03T18:59:14.624Z,2.90
2019-03-03T19:01:18.595Z,3.00
2019-03-03T19:03:22.463Z,3.50
2019-03-03T19:05:26.436Z,2.70
2019-03-03T19:07:30.540Z,2.77
2019-03-03T19:09:34.583Z,2.50
2019-03-03T19:11:38.396Z,2.80
2019-03-03T19:13:42.255Z,2.70
2019-03-03T19:15:46.209Z,3.00
2019-03-03T19:17:50.079Z,3.27
2019-03-03T19:19:53.971Z,3.47
2019-03-03T19:21:57.960Z,2.73
2019-03-03T19:24:02.064Z,2.90
2019-03-03T19:26:06.115Z,3.37
2019-03-03T19:28:09.995Z,2.83
2019-03-03T19:30:16.515Z,2.30
2019-03-03T19:32:20.384Z,2.43
2019-03-03T19:34:24.505Z,3.87
2019-03-03T19:36:28.355Z,2.60
2019-03-03T19:38:32.643Z,2.23
2019-03-03T19:40:36.588Z,3.10
2019-03-03T19:42:40.487Z,2.70
2019-03-03T19:44:44.463Z,2.53
2019-03-03T19:46:48.350Z,3.00
2019-03-03T19:48:52.132Z,2.87
2019-03-03T19:50:55.959Z,2.70
2019-03-03T19:53:00.141Z,3.00
2019-03-03T19:55:06.101Z,3.03
2019-03-03T19:57:09.956Z,2.70
2019-03-03T19:59:13.764Z,3.13
2019-03-03T20:01:17.804Z,3.17
2019-03-03T20:03:21.879Z,3.07
2019-03-03T20:05:25.848Z,2.43
2019-03-03T20:07:29.705Z,3.13
2019-03-03T20:09:34.845Z,2.70
2019-03-03T20:11:38.667Z,3.30
2019-03-03T20:13:42.518Z,3.03
2019-03-03T20:15:46.574Z,3.73
2019-03-03T20:17:50.544Z,3.30
2019-03-03T20:19:54.398Z,2.30
2019-03-03T20:21:58.877Z,2.63
2019-03-03T20:24:03.565Z,2.63
2019-03-03T20:26:07.625Z,2.60
2019-03-03T20:28:11.547Z,3.13
2019-03-03T20:30:35.429Z,3.10
2019-03-03T20:32:39.372Z,2.77
2019-03-03T20:34:43.217Z,2.90
2019-03-03T20:36:47.005Z,2.77
2019-03-03T20:38:50.907Z,2.90
2019-03-03T20:40:54.865Z,3.07
2019-03-03T20:42:58.772Z,3.33
2019-03-03T20:45:02.851Z,2.53
2019-03-03T20:47:06.810Z,2.90
2019-03-03T20:49:10.996Z,2.80
2019-03-03T20:51:14.916Z,2.73
2019-03-03T20:53:19.468Z,2.37
2019-03-03T20:55:23.388Z,2.90
2019-03-03T20:57:27.313Z,3.07
2019-03-03T20:59:31.174Z,3.33
2019-03-03T21:01:35.425Z,3.60
2019-03-03T21:03:39.280Z,3.00
2019-03-03T21:05:43.140Z,2.70
2019-03-03T21:07:51.301Z,2.60
2019-03-03T21:09:53.404Z,2.57
2019-03-03T21:11:57.263Z,3.10
2019-03-03T21:14:01.017Z,3.10
2019-03-03T21:16:05.359Z,2.90
2019-03-03T21:18:09.333Z,3.40
2019-03-03T21:20:14.944Z,2.80
2019-03-03T21:22:19.374Z,2.90
2019-03-03T21:24:23.159Z,2.70
2019-03-03T21:26:26.977Z,2.60
2019-03-03T21:28:30.899Z,3.47
2019-03-03T21:30:35.333Z,3.07
2019-03-03T21:32:39.470Z,3.30
2019-03-03T21:34:43.263Z,2.73
2019-03-03T21:36:47.147Z,2.67
2019-03-03T21:38:50.992Z,2.97
2019-03-03T21:40:54.784Z,3.20
2019-03-03T21:42:58.646Z,3.33
2019-03-03T21:45:03.157Z,2.53
2019-03-03T21:47:07.241Z,2.73
2019-03-03T21:49:11.080Z,3.30
2019-03-03T21:51:14.919Z,2.87
2019-03-03T21:53:18.728Z,3.00
2019-03-03T21:55:22.645Z,2.80
2019-03-03T21:57:26.514Z,2.47
2019-03-03T21:59:30.317Z,2.70
2019-03-03T22:01:35.029Z,2.87
2019-03-03T22:03:38.837Z,2.60
2019-03-03T22:05:42.684Z,2.77
2019-03-03T22:07:46.564Z,2.77
2019-03-03T22:09:50.387Z,2.47
2019-03-03T22:11:54.452Z,2.53
2019-03-03T22:13:58.214Z,2.43
2019-03-03T22:16:02.507Z,2.53
2019-03-03T22:18:06.781Z,2.20
2019-03-03T22:20:10.724Z,2.73
2019-03-03T22:22:14.633Z,2.73
2019-03-03T22:24:18.924Z,2.67
2019-03-03T22:26:22.761Z,2.70
2019-03-03T22:28:26.878Z,2.57
2019-03-03T22:30:30.912Z,2.67
2019-03-03T22:32:35.269Z,2.90
2019-03-03T22:34:39.127Z,2.40
2019-03-03T22:36:42.997Z,2.53
2019-03-03T22:38:46.823Z,2.47
2019-03-03T22:40:50.628Z,2.60
2019-03-03T22:42:54.482Z,2.20
2019-03-03T22:44:58.478Z,2.40
2019-03-03T22:47:02.467Z,2.33
2019-03-03T22:49:06.864Z,2.43
2019-03-03T22:51:10.683Z,2.13
2019-03-03T22:53:15.365Z,2.23
2019-03-03T22:55:19.379Z,2.30
2019-03-03T22:57:23.118Z,2.33
2019-03-03T22:59:26.967Z,2.30
2019-03-03T23:01:38.267Z,2.40
2019-03-03T23:03:54.399Z,2.47
2019-03-03T23:06:12.378Z,2.30
2019-03-03T23:08:24.247Z,2.47
2019-03-03T23:10:55.164Z,2.40
2019-03-03T23:13:07.704Z,2.60
2019-03-03T23:15:26.548Z,2.10
2019-03-03T23:18:12.387Z,2.33
2019-03-03T23:20:25.188Z,2.50
2019-03-03T23:22:40.839Z,2.27
2019-03-03T23:25:24.779Z,2.20
2019-03-03T23:27:28.561Z,2.40
2019-03-03T23:29:32.629Z,2.30
2019-03-03T23:31:36.955Z,1.97
2019-03-03T23:33:40.860Z,2.00
2019-03-03T23:35:44.738Z,2.60
2019-03-03T23:37:48.612Z,2.17
2019-03-03T23:39:52.438Z,2.33
2019-03-03T23:41:56.264Z,1.73
2019-03-03T23:44:00.156Z,1.90
2019-03-03T23:46:04.578Z,2.10
2019-03-03T23:48:08.551Z,2.30
2019-03-03T23:50:12.536Z,2.00
2019-03-03T23:52:16.316Z,2.33
2019-03-03T23:54:20.107Z,2.10
2019-03-03T23:56:24.231Z,2.07
2019-03-03T23:58:28.067Z,2.20
